sensor_id;sensor_type;location;lat;lon;timestamp;temperature;humidity
11818;DHT22;5966;52.402;5.322;2023-04-15T00:01:57;9.40;99.90
11818;DHT22;5966;52.402;5.322;2023-04-15T00:04:26;9.40;99.90
11818;DHT22;5966;52.402;5.322;2023-04-15T00:06:54;9.40;99.90
11818;DHT22;5966;52.402;5.322;2023-04-15T00:09:22;9.40;99.90
11818;DHT22;5966;52.402;5.322;2023-04-15T00:11:52;9.40;99.90
11818;DHT22;5966;52.402;5.322;2023-04-15T00:14:20;9.30;99.90
11818;DHT22;5966;52.402;5.322;2023-04-15T00:16:48;9.30;99.90
11818;DHT22;5966;52.402;5.322;2023-04-15T00:19:21;9.30;99.90
11818;DHT22;5966;52.402;5.322;2023-04-15T00:21:49;9.20;99.90
11818;DHT22;5966;52.402;5.322;2023-04-15T00:24:17;9.20;99.90
11818;DHT22;5966;52.402;5.322;2023-04-15T00:26:45;9.10;99.90
11818;DHT22;5966;52.402;5.322;2023-04-15T00:29:14;9.10;99.90
11818;DHT22;5966;52.402;5.322;2023-04-15T00:31:42;9.00;99.90
11818;DHT22;5966;52.402;5.322;2023-04-15T00:34:10;9.00;99.90
11818;DHT22;5966;52.402;5.322;2023-04-15T00:36:38;9.00;99.90
11818;DHT22;5966;52.402;5.322;2023-04-15T00:39:06;8.90;99.90
11818;DHT22;5966;52.402;5.322;2023-04-15T00:41:34;8.90;99.90
11818;DHT22;5966;52.402;5.322;2023-04-15T00:44:05;8.90;99.90
11818;DHT22;5966;52.402;5.322;2023-04-15T00:46:36;8.80;99.90
11818;DHT22;5966;52.402;5.322;2023-04-15T00:49:05;8.80;99.90
11818;DHT22;5966;52.402;5.322;2023-04-15T00:51:33;8.70;99.90
11818;DHT22;5966;52.402;5.322;2023-04-15T00:54:03;8.70;99.90
11818;DHT22;5966;52.402;5.322;2023-04-15T00:56:34;8.70;99.90
11818;DHT22;5966;52.402;5.322;2023-04-15T00:59:02;8.70;99.90
11818;DHT22;5966;52.402;5.322;2023-04-15T01:01:34;8.70;99.90
11818;DHT22;5966;52.402;5.322;2023-04-15T01:04:03;8.60;99.90
11818;DHT22;5966;52.402;5.322;2023-04-15T01:06:31;8.60;99.90
11818;DHT22;5966;52.402;5.322;2023-04-15T01:08:59;8.50;99.90
11818;DHT22;5966;52.402;5.322;2023-04-15T01:11:29;8.50;99.90
11818;DHT22;5966;52.402;5.322;2023-04-15T01:13:57;8.50;99.90
11818;DHT22;5966;52.402;5.322;2023-04-15T01:16:25;8.50;99.90
11818;DHT22;5966;52.402;5.322;2023-04-15T01:18:55;8.40;99.90
11818;DHT22;5966;52.402;5.322;2023-04-15T01:21:24;8.30;99.90
11818;DHT22;5966;52.402;5.322;2023-04-15T01:23:52;8.30;99.90
11818;DHT22;5966;52.402;5.322;2023-04-15T01:26:24;8.20;99.90
11818;DHT22;5966;52.402;5.322;2023-04-15T01:28:52;8.20;99.90
11818;DHT22;5966;52.402;5.322;2023-04-15T01:31:20;8.20;99.90
11818;DHT22;5966;52.402;5.322;2023-04-15T01:33:48;8.10;99.90
11818;DHT22;5966;52.402;5.322;2023-04-15T01:36:16;8.10;99.90
11818;DHT22;5966;52.402;5.322;2023-04-15T01:38:44;8.10;99.90
11818;DHT22;5966;52.402;5.322;2023-04-15T01:41:12;8.10;99.90
11818;DHT22;5966;52.402;5.322;2023-04-15T01:43:42;8.00;99.90
11818;DHT22;5966;52.402;5.322;2023-04-15T01:46:10;8.00;99.90
11818;DHT22;5966;52.402;5.322;2023-04-15T01:48:38;8.00;99.90
11818;DHT22;5966;52.402;5.322;2023-04-15T01:51:06;8.00;99.90
11818;DHT22;5966;52.402;5.322;2023-04-15T01:53:34;8.00;99.90
11818;DHT22;5966;52.402;5.322;2023-04-15T01:56:03;8.00;99.90
11818;DHT22;5966;52.402;5.322;2023-04-15T01:58:31;8.00;99.90
11818;DHT22;5966;52.402;5.322;2023-04-15T02:01:00;8.00;99.90
11818;DHT22;5966;52.402;5.322;2023-04-15T02:03:29;8.00;99.90
11818;DHT22;5966;52.402;5.322;2023-04-15T02:05:58;8.00;99.90
11818;DHT22;5966;52.402;5.322;2023-04-15T02:08:26;7.90;99.90
11818;DHT22;5966;52.402;5.322;2023-04-15T02:10:54;7.90;99.90
11818;DHT22;5966;52.402;5.322;2023-04-15T02:13:22;7.90;99.90
11818;DHT22;5966;52.402;5.322;2023-04-15T02:15:50;7.90;99.90
11818;DHT22;5966;52.402;5.322;2023-04-15T02:18:20;7.80;99.90
11818;DHT22;5966;52.402;5.322;2023-04-15T02:20:50;7.80;99.90
11818;DHT22;5966;52.402;5.322;2023-04-15T02:23:18;7.70;99.90
11818;DHT22;5966;52.402;5.322;2023-04-15T02:25:46;7.70;99.90
11818;DHT22;5966;52.402;5.322;2023-04-15T02:28:19;7.60;99.90
11818;DHT22;5966;52.402;5.322;2023-04-15T02:30:47;7.60;99.90
11818;DHT22;5966;52.402;5.322;2023-04-15T02:33:20;7.50;99.90
11818;DHT22;5966;52.402;5.322;2023-04-15T02:35:48;7.50;99.90
11818;DHT22;5966;52.402;5.322;2023-04-15T02:38:16;7.50;99.90
11818;DHT22;5966;52.402;5.322;2023-04-15T02:40:44;7.40;99.90
11818;DHT22;5966;52.402;5.322;2023-04-15T02:43:15;7.40;99.90
11818;DHT22;5966;52.402;5.322;2023-04-15T02:45:44;7.40;99.90
11818;DHT22;5966;52.402;5.322;2023-04-15T02:48:13;7.40;99.90
11818;DHT22;5966;52.402;5.322;2023-04-15T02:50:45;7.40;99.90
11818;DHT22;5966;52.402;5.322;2023-04-15T02:53:13;7.30;99.90
11818;DHT22;5966;52.402;5.322;2023-04-15T02:55:41;7.30;99.90
11818;DHT22;5966;52.402;5.322;2023-04-15T02:58:09;7.20;99.90
11818;DHT22;5966;52.402;5.322;2023-04-15T03:00:37;7.20;99.90
11818;DHT22;5966;52.402;5.322;2023-04-15T03:03:05;7.20;99.90
11818;DHT22;5966;52.402;5.322;2023-04-15T03:05:33;7.20;99.90
11818;DHT22;5966;52.402;5.322;2023-04-15T03:08:06;7.30;99.90
11818;DHT22;5966;52.402;5.322;2023-04-15T03:10:34;7.20;99.90
11818;DHT22;5966;52.402;5.322;2023-04-15T03:13:01;7.20;99.90
11818;DHT22;5966;52.402;5.322;2023-04-15T03:15:31;7.20;99.90
11818;DHT22;5966;52.402;5.322;2023-04-15T03:17:59;7.20;99.90
11818;DHT22;5966;52.402;5.322;2023-04-15T03:20:27;7.10;99.90
11818;DHT22;5966;52.402;5.322;2023-04-15T03:22:55;7.10;99.90
11818;DHT22;5966;52.402;5.322;2023-04-15T03:25:24;7.10;99.90
11818;DHT22;5966;52.402;5.322;2023-04-15T03:27:52;7.00;99.90
11818;DHT22;5966;52.402;5.322;2023-04-15T03:30:20;7.00;99.90
11818;DHT22;5966;52.402;5.322;2023-04-15T03:32:48;7.00;99.90
11818;DHT22;5966;52.402;5.322;2023-04-15T03:35:16;7.00;99.90
11818;DHT22;5966;52.402;5.322;2023-04-15T03:37:44;7.00;99.90
11818;DHT22;5966;52.402;5.322;2023-04-15T03:40:14;7.00;99.90
11818;DHT22;5966;52.402;5.322;2023-04-15T03:42:44;7.00;99.90
11818;DHT22;5966;52.402;5.322;2023-04-15T03:45:12;7.00;99.90
11818;DHT22;5966;52.402;5.322;2023-04-15T03:47:39;7.00;99.90
11818;DHT22;5966;52.402;5.322;2023-04-15T03:50:08;7.00;99.90
11818;DHT22;5966;52.402;5.322;2023-04-15T03:52:36;7.00;99.90
11818;DHT22;5966;52.402;5.322;2023-04-15T03:55:04;7.00;99.90
11818;DHT22;5966;52.402;5.322;2023-04-15T03:57:32;7.00;99.90
11818;DHT22;5966;52.402;5.322;2023-04-15T04:00:06;7.00;99.90
11818;DHT22;5966;52.402;5.322;2023-04-15T04:02:35;6.90;99.90
11818;DHT22;5966;52.402;5.322;2023-04-15T04:05:04;7.00;99.90
11818;DHT22;5966;52.402;5.322;2023-04-15T04:07:32;6.90;99.90
11818;DHT22;5966;52.402;5.322;2023-04-15T04:10:00;6.90;99.90
11818;DHT22;5966;52.402;5.322;2023-04-15T04:12:29;6.90;99.90
11818;DHT22;5966;52.402;5.322;2023-04-15T04:14:57;6.80;99.90
11818;DHT22;5966;52.402;5.322;2023-04-15T04:17:26;6.80;99.90
11818;DHT22;5966;52.402;5.322;2023-04-15T04:19:54;6.80;99.90
11818;DHT22;5966;52.402;5.322;2023-04-15T04:22:22;6.90;99.90
11818;DHT22;5966;52.402;5.322;2023-04-15T04:24:51;6.80;99.90
11818;DHT22;5966;52.402;5.322;2023-04-15T04:27:18;6.80;99.90
11818;DHT22;5966;52.402;5.322;2023-04-15T04:29:46;6.70;99.90
11818;DHT22;5966;52.402;5.322;2023-04-15T04:32:15;6.70;99.90
11818;DHT22;5966;52.402;5.322;2023-04-15T04:34:45;6.70;99.90
11818;DHT22;5966;52.402;5.322;2023-04-15T04:37:13;6.60;99.90
11818;DHT22;5966;52.402;5.322;2023-04-15T04:39:41;6.50;99.90
11818;DHT22;5966;52.402;5.322;2023-04-15T04:42:09;6.50;99.90
11818;DHT22;5966;52.402;5.322;2023-04-15T04:44:37;6.40;99.90
11818;DHT22;5966;52.402;5.322;2023-04-15T04:47:05;6.40;99.90
11818;DHT22;5966;52.402;5.322;2023-04-15T04:49:34;6.40;99.90
11818;DHT22;5966;52.402;5.322;2023-04-15T04:52:03;6.40;99.90
11818;DHT22;5966;52.402;5.322;2023-04-15T04:54:32;6.30;99.90
11818;DHT22;5966;52.402;5.322;2023-04-15T04:57:00;6.30;99.90
11818;DHT22;5966;52.402;5.322;2023-04-15T04:59:28;6.30;99.90
11818;DHT22;5966;52.402;5.322;2023-04-15T05:01:56;6.30;99.90
11818;DHT22;5966;52.402;5.322;2023-04-15T05:04:24;6.30;99.90
11818;DHT22;5966;52.402;5.322;2023-04-15T05:06:52;6.30;99.90
11818;DHT22;5966;52.402;5.322;2023-04-15T05:09:22;6.30;99.90
11818;DHT22;5966;52.402;5.322;2023-04-15T05:11:50;6.30;99.90
11818;DHT22;5966;52.402;5.322;2023-04-15T05:14:18;6.40;99.90
11818;DHT22;5966;52.402;5.322;2023-04-15T05:16:48;6.40;99.90
11818;DHT22;5966;52.402;5.322;2023-04-15T05:19:16;6.30;99.90
11818;DHT22;5966;52.402;5.322;2023-04-15T05:21:45;6.30;99.90
11818;DHT22;5966;52.402;5.322;2023-04-15T05:24:12;6.30;99.90
11818;DHT22;5966;52.402;5.322;2023-04-15T05:26:42;6.30;99.90
11818;DHT22;5966;52.402;5.322;2023-04-15T05:29:10;6.20;99.90
11818;DHT22;5966;52.402;5.322;2023-04-15T05:31:38;6.30;99.90
11818;DHT22;5966;52.402;5.322;2023-04-15T05:34:06;6.30;99.90
11818;DHT22;5966;52.402;5.322;2023-04-15T05:36:34;6.30;99.90
11818;DHT22;5966;52.402;5.322;2023-04-15T05:39:02;6.40;99.90
11818;DHT22;5966;52.402;5.322;2023-04-15T05:41:30;6.40;99.90
11818;DHT22;5966;52.402;5.322;2023-04-15T05:44:00;6.40;99.90
11818;DHT22;5966;52.402;5.322;2023-04-15T05:46:28;6.40;99.90
11818;DHT22;5966;52.402;5.322;2023-04-15T05:48:56;6.40;99.90
11818;DHT22;5966;52.402;5.322;2023-04-15T05:51:24;6.40;99.90
11818;DHT22;5966;52.402;5.322;2023-04-15T05:53:52;6.40;99.90
11818;DHT22;5966;52.402;5.322;2023-04-15T05:56:20;6.40;99.90
11818;DHT22;5966;52.402;5.322;2023-04-15T05:58:48;6.40;99.90
11818;DHT22;5966;52.402;5.322;2023-04-15T06:01:20;6.50;99.90
11818;DHT22;5966;52.402;5.322;2023-04-15T06:03:48;6.50;99.90
11818;DHT22;5966;52.402;5.322;2023-04-15T06:06:17;6.50;99.90
11818;DHT22;5966;52.402;5.322;2023-04-15T06:08:46;6.60;99.90
11818;DHT22;5966;52.402;5.322;2023-04-15T06:11:14;6.60;99.90
11818;DHT22;5966;52.402;5.322;2023-04-15T06:13:42;6.60;99.90
11818;DHT22;5966;52.402;5.322;2023-04-15T06:16:10;6.60;99.90
11818;DHT22;5966;52.402;5.322;2023-04-15T06:18:39;6.60;99.90
11818;DHT22;5966;52.402;5.322;2023-04-15T06:21:07;6.60;99.90
11818;DHT22;5966;52.402;5.322;2023-04-15T06:23:35;6.60;99.90
11818;DHT22;5966;52.402;5.322;2023-04-15T06:26:04;6.70;99.90
11818;DHT22;5966;52.402;5.322;2023-04-15T06:28:32;6.70;99.90
11818;DHT22;5966;52.402;5.322;2023-04-15T06:30:59;6.80;99.90
11818;DHT22;5966;52.402;5.322;2023-04-15T06:33:28;6.90;99.90
11818;DHT22;5966;52.402;5.322;2023-04-15T06:35:57;7.00;99.90
11818;DHT22;5966;52.402;5.322;2023-04-15T06:38:25;7.10;99.90
11818;DHT22;5966;52.402;5.322;2023-04-15T06:40:53;7.10;99.90
11818;DHT22;5966;52.402;5.322;2023-04-15T06:43:21;7.30;99.90
11818;DHT22;5966;52.402;5.322;2023-04-15T06:45:49;7.30;99.90
11818;DHT22;5966;52.402;5.322;2023-04-15T06:48:17;7.50;99.90
11818;DHT22;5966;52.402;5.322;2023-04-15T06:50:45;7.60;99.90
11818;DHT22;5966;52.402;5.322;2023-04-15T06:53:15;7.80;99.90
11818;DHT22;5966;52.402;5.322;2023-04-15T06:55:43;7.90;99.90
11818;DHT22;5966;52.402;5.322;2023-04-15T06:58:11;8.10;99.90
11818;DHT22;5966;52.402;5.322;2023-04-15T07:00:38;8.20;99.90
11818;DHT22;5966;52.402;5.322;2023-04-15T07:03:07;8.40;99.90
11818;DHT22;5966;52.402;5.322;2023-04-15T07:05:36;8.50;99.90
11818;DHT22;5966;52.402;5.322;2023-04-15T07:08:04;8.70;99.90
11818;DHT22;5966;52.402;5.322;2023-04-15T07:10:34;8.80;99.90
11818;DHT22;5966;52.402;5.322;2023-04-15T07:13:03;8.90;99.90
11818;DHT22;5966;52.402;5.322;2023-04-15T07:15:31;9.00;99.90
11818;DHT22;5966;52.402;5.322;2023-04-15T07:17:59;9.10;99.90
11818;DHT22;5966;52.402;5.322;2023-04-15T07:20:27;9.20;99.90
11818;DHT22;5966;52.402;5.322;2023-04-15T07:22:55;9.40;99.90
11818;DHT22;5966;52.402;5.322;2023-04-15T07:25:23;9.50;99.90
11818;DHT22;5966;52.402;5.322;2023-04-15T07:27:53;9.60;99.90
11818;DHT22;5966;52.402;5.322;2023-04-15T07:30:21;9.80;99.90
11818;DHT22;5966;52.402;5.322;2023-04-15T07:32:50;9.80;99.90
11818;DHT22;5966;52.402;5.322;2023-04-15T07:35:18;9.90;99.90
11818;DHT22;5966;52.402;5.322;2023-04-15T07:37:47;10.00;99.90
11818;DHT22;5966;52.402;5.322;2023-04-15T07:40:15;10.00;99.90
11818;DHT22;5966;52.402;5.322;2023-04-15T07:42:43;10.10;99.90
11818;DHT22;5966;52.402;5.322;2023-04-15T07:45:12;10.20;99.90
11818;DHT22;5966;52.402;5.322;2023-04-15T07:47:40;10.20;99.90
11818;DHT22;5966;52.402;5.322;2023-04-15T07:50:09;10.30;99.90
11818;DHT22;5966;52.402;5.322;2023-04-15T07:52:37;10.40;99.90
11818;DHT22;5966;52.402;5.322;2023-04-15T07:55:06;10.30;99.90
11818;DHT22;5966;52.402;5.322;2023-04-15T07:57:35;10.30;99.90
11818;DHT22;5966;52.402;5.322;2023-04-15T08:00:04;10.20;99.90
11818;DHT22;5966;52.402;5.322;2023-04-15T08:02:34;10.30;99.90
11818;DHT22;5966;52.402;5.322;2023-04-15T08:05:06;10.40;99.90
11818;DHT22;5966;52.402;5.322;2023-04-15T08:07:35;10.40;99.90
11818;DHT22;5966;52.402;5.322;2023-04-15T08:10:04;10.50;99.90
11818;DHT22;5966;52.402;5.322;2023-04-15T08:12:32;10.60;99.90
11818;DHT22;5966;52.402;5.322;2023-04-15T08:15:00;10.60;99.90
11818;DHT22;5966;52.402;5.322;2023-04-15T08:17:28;10.60;99.90
11818;DHT22;5966;52.402;5.322;2023-04-15T08:19:58;10.70;99.90
11818;DHT22;5966;52.402;5.322;2023-04-15T08:22:26;10.80;99.90
11818;DHT22;5966;52.402;5.322;2023-04-15T08:24:54;10.80;99.90
11818;DHT22;5966;52.402;5.322;2023-04-15T08:27:22;10.80;99.90
11818;DHT22;5966;52.402;5.322;2023-04-15T08:29:50;10.80;99.90
11818;DHT22;5966;52.402;5.322;2023-04-15T08:32:18;10.90;99.90
11818;DHT22;5966;52.402;5.322;2023-04-15T08:34:46;11.00;99.90
11818;DHT22;5966;52.402;5.322;2023-04-15T08:37:16;11.20;99.90
11818;DHT22;5966;52.402;5.322;2023-04-15T08:39:44;11.20;99.90
11818;DHT22;5966;52.402;5.322;2023-04-15T08:42:16;11.10;99.90
11818;DHT22;5966;52.402;5.322;2023-04-15T08:44:45;11.20;99.90
11818;DHT22;5966;52.402;5.322;2023-04-15T08:47:19;11.30;99.90
11818;DHT22;5966;52.402;5.322;2023-04-15T08:49:49;11.30;99.90
11818;DHT22;5966;52.402;5.322;2023-04-15T08:52:21;11.10;99.90
11818;DHT22;5966;52.402;5.322;2023-04-15T08:54:49;11.00;99.90
11818;DHT22;5966;52.402;5.322;2023-04-15T08:57:18;11.00;99.90
11818;DHT22;5966;52.402;5.322;2023-04-15T08:59:46;10.80;99.90
11818;DHT22;5966;52.402;5.322;2023-04-15T09:02:15;10.80;99.90
11818;DHT22;5966;52.402;5.322;2023-04-15T09:04:43;10.90;99.90
11818;DHT22;5966;52.402;5.322;2023-04-15T09:07:11;10.90;99.90
11818;DHT22;5966;52.402;5.322;2023-04-15T09:09:40;10.80;99.90
11818;DHT22;5966;52.402;5.322;2023-04-15T09:12:10;10.90;99.90
11818;DHT22;5966;52.402;5.322;2023-04-15T09:14:39;10.80;99.90
11818;DHT22;5966;52.402;5.322;2023-04-15T09:17:09;10.80;99.90
11818;DHT22;5966;52.402;5.322;2023-04-15T09:19:38;10.80;99.90
11818;DHT22;5966;52.402;5.322;2023-04-15T09:22:06;10.80;99.90
11818;DHT22;5966;52.402;5.322;2023-04-15T09:24:35;10.80;99.90
11818;DHT22;5966;52.402;5.322;2023-04-15T09:27:06;10.80;99.90
11818;DHT22;5966;52.402;5.322;2023-04-15T09:29:34;10.80;99.90
11818;DHT22;5966;52.402;5.322;2023-04-15T09:32:09;11.00;99.90
11818;DHT22;5966;52.402;5.322;2023-04-15T09:34:37;11.00;99.90
11818;DHT22;5966;52.402;5.322;2023-04-15T09:37:05;11.10;99.90
11818;DHT22;5966;52.402;5.322;2023-04-15T09:42:17;11.00;99.90
11818;DHT22;5966;52.402;5.322;2023-04-15T09:44:50;10.80;99.90
11818;DHT22;5966;52.402;5.322;2023-04-15T09:47:28;10.80;99.90
11818;DHT22;5966;52.402;5.322;2023-04-15T09:49:56;10.70;99.90
11818;DHT22;5966;52.402;5.322;2023-04-15T09:52:25;10.70;99.90
11818;DHT22;5966;52.402;5.322;2023-04-15T09:54:58;10.60;99.90
11818;DHT22;5966;52.402;5.322;2023-04-15T09:57:35;10.50;99.90
11818;DHT22;5966;52.402;5.322;2023-04-15T10:00:03;10.60;99.90
11818;DHT22;5966;52.402;5.322;2023-04-15T10:02:32;10.70;99.90
11818;DHT22;5966;52.402;5.322;2023-04-15T10:05:01;10.80;99.90
11818;DHT22;5966;52.402;5.322;2023-04-15T10:07:29;10.70;99.90
11818;DHT22;5966;52.402;5.322;2023-04-15T10:09:59;10.70;99.90
11818;DHT22;5966;52.402;5.322;2023-04-15T10:12:27;10.80;99.90
11818;DHT22;5966;52.402;5.322;2023-04-15T10:14:58;10.80;99.90
11818;DHT22;5966;52.402;5.322;2023-04-15T10:17:27;10.90;99.90
11818;DHT22;5966;52.402;5.322;2023-04-15T10:19:59;11.00;99.90
11818;DHT22;5966;52.402;5.322;2023-04-15T10:22:28;11.10;99.90
11818;DHT22;5966;52.402;5.322;2023-04-15T10:24:57;11.10;99.90
11818;DHT22;5966;52.402;5.322;2023-04-15T10:27:26;11.10;99.90
11818;DHT22;5966;52.402;5.322;2023-04-15T10:29:57;11.20;99.90
11818;DHT22;5966;52.402;5.322;2023-04-15T10:32:27;11.10;99.90
11818;DHT22;5966;52.402;5.322;2023-04-15T10:34:55;11.10;99.90
11818;DHT22;5966;52.402;5.322;2023-04-15T10:37:33;11.10;99.90
11818;DHT22;5966;52.402;5.322;2023-04-15T10:40:23;11.20;99.90
11818;DHT22;5966;52.402;5.322;2023-04-15T10:42:51;11.20;99.90
11818;DHT22;5966;52.402;5.322;2023-04-15T10:45:20;11.20;99.90
11818;DHT22;5966;52.402;5.322;2023-04-15T10:47:51;11.20;99.90
11818;DHT22;5966;52.402;5.322;2023-04-15T10:50:21;11.30;99.90
11818;DHT22;5966;52.402;5.322;2023-04-15T10:52:50;11.20;99.90
11818;DHT22;5966;52.402;5.322;2023-04-15T10:55:20;11.10;99.90
11818;DHT22;5966;52.402;5.322;2023-04-15T10:57:51;11.10;99.90
11818;DHT22;5966;52.402;5.322;2023-04-15T11:00:24;11.00;99.90
11818;DHT22;5966;52.402;5.322;2023-04-15T11:02:54;11.10;99.90
11818;DHT22;5966;52.402;5.322;2023-04-15T11:05:49;11.10;99.90
11818;DHT22;5966;52.402;5.322;2023-04-15T11:08:18;11.00;99.90
11818;DHT22;5966;52.402;5.322;2023-04-15T11:10:50;10.90;99.90
11818;DHT22;5966;52.402;5.322;2023-04-15T11:13:31;11.00;99.90
11818;DHT22;5966;52.402;5.322;2023-04-15T11:16:01;11.00;99.90
11818;DHT22;5966;52.402;5.322;2023-04-15T11:18:31;10.90;99.90
11818;DHT22;5966;52.402;5.322;2023-04-15T11:21:01;10.90;99.90
11818;DHT22;5966;52.402;5.322;2023-04-15T11:23:32;10.90;99.90
11818;DHT22;5966;52.402;5.322;2023-04-15T11:26:02;10.80;99.90
11818;DHT22;5966;52.402;5.322;2023-04-15T11:28:32;10.90;99.90
11818;DHT22;5966;52.402;5.322;2023-04-15T11:31:09;11.00;99.90
11818;DHT22;5966;52.402;5.322;2023-04-15T11:33:45;11.00;99.90
11818;DHT22;5966;52.402;5.322;2023-04-15T11:36:13;11.00;99.90
11818;DHT22;5966;52.402;5.322;2023-04-15T11:38:42;10.90;99.90
11818;DHT22;5966;52.402;5.322;2023-04-15T11:41:11;10.80;99.90
11818;DHT22;5966;52.402;5.322;2023-04-15T11:43:39;10.70;99.90
11818;DHT22;5966;52.402;5.322;2023-04-15T11:46:09;10.80;99.90
11818;DHT22;5966;52.402;5.322;2023-04-15T11:48:41;10.80;99.90
11818;DHT22;5966;52.402;5.322;2023-04-15T11:51:10;11.00;99.90
11818;DHT22;5966;52.402;5.322;2023-04-15T11:53:40;11.10;99.90
11818;DHT22;5966;52.402;5.322;2023-04-15T11:56:10;11.10;99.90
11818;DHT22;5966;52.402;5.322;2023-04-15T11:58:38;11.10;99.90
11818;DHT22;5966;52.402;5.322;2023-04-15T12:01:09;11.00;99.90
11818;DHT22;5966;52.402;5.322;2023-04-15T12:03:38;11.00;99.90
11818;DHT22;5966;52.402;5.322;2023-04-15T12:06:15;11.00;99.90
11818;DHT22;5966;52.402;5.322;2023-04-15T12:08:58;11.00;99.90
11818;DHT22;5966;52.402;5.322;2023-04-15T12:11:32;11.00;99.90
11818;DHT22;5966;52.402;5.322;2023-04-15T12:14:04;11.10;99.90
11818;DHT22;5966;52.402;5.322;2023-04-15T12:16:35;11.20;99.90
11818;DHT22;5966;52.402;5.322;2023-04-15T12:19:19;11.20;99.90
11818;DHT22;5966;52.402;5.322;2023-04-15T12:21:49;11.10;99.90
11818;DHT22;5966;52.402;5.322;2023-04-15T12:24:20;11.10;99.90
11818;DHT22;5966;52.402;5.322;2023-04-15T12:26:49;11.10;99.90
11818;DHT22;5966;52.402;5.322;2023-04-15T12:29:19;11.20;99.90
11818;DHT22;5966;52.402;5.322;2023-04-15T12:31:50;11.20;99.90
11818;DHT22;5966;52.402;5.322;2023-04-15T12:34:25;11.20;99.90
11818;DHT22;5966;52.402;5.322;2023-04-15T12:36:54;11.20;99.90
11818;DHT22;5966;52.402;5.322;2023-04-15T12:39:23;11.10;99.90
11818;DHT22;5966;52.402;5.322;2023-04-15T12:41:52;11.10;99.90
11818;DHT22;5966;52.402;5.322;2023-04-15T12:44:22;11.20;99.90
11818;DHT22;5966;52.402;5.322;2023-04-15T12:46:52;11.20;99.90
11818;DHT22;5966;52.402;5.322;2023-04-15T12:49:20;11.20;99.90
11818;DHT22;5966;52.402;5.322;2023-04-15T12:51:49;11.20;99.90
11818;DHT22;5966;52.402;5.322;2023-04-15T12:54:18;11.10;99.90
11818;DHT22;5966;52.402;5.322;2023-04-15T12:56:48;11.00;99.90
11818;DHT22;5966;52.402;5.322;2023-04-15T12:59:16;11.10;99.90
11818;DHT22;5966;52.402;5.322;2023-04-15T13:01:46;11.10;99.90
11818;DHT22;5966;52.402;5.322;2023-04-15T13:04:16;11.10;99.90
11818;DHT22;5966;52.402;5.322;2023-04-15T13:06:44;11.10;99.90
11818;DHT22;5966;52.402;5.322;2023-04-15T13:09:12;11.00;99.90
11818;DHT22;5966;52.402;5.322;2023-04-15T13:11:40;11.00;99.90
11818;DHT22;5966;52.402;5.322;2023-04-15T13:14:08;10.90;99.90
11818;DHT22;5966;52.402;5.322;2023-04-15T13:16:37;10.90;99.90
11818;DHT22;5966;52.402;5.322;2023-04-15T13:19:05;10.70;99.90
11818;DHT22;5966;52.402;5.322;2023-04-15T13:21:35;10.60;99.90
11818;DHT22;5966;52.402;5.322;2023-04-15T13:24:03;10.50;99.90
11818;DHT22;5966;52.402;5.322;2023-04-15T13:26:33;10.40;99.90
11818;DHT22;5966;52.402;5.322;2023-04-15T13:29:00;10.40;99.90
11818;DHT22;5966;52.402;5.322;2023-04-15T13:31:28;10.40;99.90
11818;DHT22;5966;52.402;5.322;2023-04-15T13:33:56;10.40;99.90
11818;DHT22;5966;52.402;5.322;2023-04-15T13:36:24;10.50;99.90
11818;DHT22;5966;52.402;5.322;2023-04-15T13:38:54;10.50;99.90
11818;DHT22;5966;52.402;5.322;2023-04-15T13:41:23;10.50;99.90
11818;DHT22;5966;52.402;5.322;2023-04-15T13:43:51;10.40;99.90
11818;DHT22;5966;52.402;5.322;2023-04-15T13:46:19;10.40;99.90
11818;DHT22;5966;52.402;5.322;2023-04-15T13:48:47;10.30;99.90
11818;DHT22;5966;52.402;5.322;2023-04-15T13:51:15;10.30;99.90
11818;DHT22;5966;52.402;5.322;2023-04-15T13:53:43;10.30;99.90
11818;DHT22;5966;52.402;5.322;2023-04-15T13:56:13;10.20;99.90
11818;DHT22;5966;52.402;5.322;2023-04-15T13:58:41;10.20;99.90
11818;DHT22;5966;52.402;5.322;2023-04-15T14:01:09;10.20;99.90
11818;DHT22;5966;52.402;5.322;2023-04-15T14:03:37;10.20;99.90
11818;DHT22;5966;52.402;5.322;2023-04-15T14:06:06;10.30;99.90
11818;DHT22;5966;52.402;5.322;2023-04-15T14:08:33;10.30;99.90
11818;DHT22;5966;52.402;5.322;2023-04-15T14:11:02;10.30;99.90
11818;DHT22;5966;52.402;5.322;2023-04-15T14:13:31;10.30;99.90
11818;DHT22;5966;52.402;5.322;2023-04-15T14:15:59;10.20;99.90
11818;DHT22;5966;52.402;5.322;2023-04-15T14:18:27;10.20;99.90
11818;DHT22;5966;52.402;5.322;2023-04-15T14:20:55;10.10;99.90
11818;DHT22;5966;52.402;5.322;2023-04-15T14:23:23;10.00;99.90
11818;DHT22;5966;52.402;5.322;2023-04-15T14:25:52;9.90;99.90
11818;DHT22;5966;52.402;5.322;2023-04-15T14:28:20;9.90;99.90
11818;DHT22;5966;52.402;5.322;2023-04-15T14:30:49;9.90;99.90
11818;DHT22;5966;52.402;5.322;2023-04-15T14:33:17;9.90;99.90
11818;DHT22;5966;52.402;5.322;2023-04-15T14:35:46;9.80;99.90
11818;DHT22;5966;52.402;5.322;2023-04-15T14:38:14;9.80;99.90
11818;DHT22;5966;52.402;5.322;2023-04-15T14:40:42;9.80;99.90
11818;DHT22;5966;52.402;5.322;2023-04-15T14:43:10;9.80;99.90
11818;DHT22;5966;52.402;5.322;2023-04-15T14:45:38;9.70;99.90
11818;DHT22;5966;52.402;5.322;2023-04-15T14:48:12;9.70;99.90
11818;DHT22;5966;52.402;5.322;2023-04-15T14:50:40;9.70;99.90
11818;DHT22;5966;52.402;5.322;2023-04-15T14:53:08;9.70;99.90
11818;DHT22;5966;52.402;5.322;2023-04-15T14:55:36;9.70;99.90
11818;DHT22;5966;52.402;5.322;2023-04-15T14:58:05;9.60;99.90
11818;DHT22;5966;52.402;5.322;2023-04-15T15:00:34;9.50;99.90
11818;DHT22;5966;52.402;5.322;2023-04-15T15:03:04;9.40;99.90
11818;DHT22;5966;52.402;5.322;2023-04-15T15:05:39;9.50;99.90
11818;DHT22;5966;52.402;5.322;2023-04-15T15:08:08;9.50;99.90
11818;DHT22;5966;52.402;5.322;2023-04-15T15:10:37;9.40;99.90
11818;DHT22;5966;52.402;5.322;2023-04-15T15:13:16;9.40;99.90
11818;DHT22;5966;52.402;5.322;2023-04-15T15:15:44;9.30;99.90
11818;DHT22;5966;52.402;5.322;2023-04-15T15:18:12;9.30;99.90
11818;DHT22;5966;52.402;5.322;2023-04-15T15:20:41;9.20;99.90
11818;DHT22;5966;52.402;5.322;2023-04-15T15:23:09;9.20;99.90
11818;DHT22;5966;52.402;5.322;2023-04-15T15:25:37;9.30;99.90
11818;DHT22;5966;52.402;5.322;2023-04-15T15:28:05;9.30;99.90
11818;DHT22;5966;52.402;5.322;2023-04-15T15:30:33;9.30;99.90
11818;DHT22;5966;52.402;5.322;2023-04-15T15:33:01;9.30;99.90
11818;DHT22;5966;52.402;5.322;2023-04-15T15:35:29;9.20;99.90
11818;DHT22;5966;52.402;5.322;2023-04-15T15:38:00;9.10;99.90
11818;DHT22;5966;52.402;5.322;2023-04-15T15:40:28;9.20;99.90
11818;DHT22;5966;52.402;5.322;2023-04-15T15:42:56;9.20;99.90
11818;DHT22;5966;52.402;5.322;2023-04-15T15:45:24;9.20;99.90
11818;DHT22;5966;52.402;5.322;2023-04-15T15:47:52;9.20;99.90
11818;DHT22;5966;52.402;5.322;2023-04-15T15:50:20;9.20;99.90
11818;DHT22;5966;52.402;5.322;2023-04-15T15:52:48;9.20;99.90
11818;DHT22;5966;52.402;5.322;2023-04-15T15:55:18;9.20;99.90
11818;DHT22;5966;52.402;5.322;2023-04-15T15:57:46;9.20;99.90
11818;DHT22;5966;52.402;5.322;2023-04-15T16:00:14;9.20;99.90
11818;DHT22;5966;52.402;5.322;2023-04-15T16:02:42;9.20;99.90
11818;DHT22;5966;52.402;5.322;2023-04-15T16:05:13;9.20;99.90
11818;DHT22;5966;52.402;5.322;2023-04-15T16:07:41;9.20;99.90
11818;DHT22;5966;52.402;5.322;2023-04-15T16:10:09;9.20;99.90